Time;durP1;ratioP1;P1;durP2;ratioP2;P2;SDS_P1;SDS_P2;PMS_P1;PMS_P2;Temp;Humidity;BMP_temperature;BMP_pressure;BME280_temperature;BME280_humidity;BME280_pressure;Samples;Min_cycle;Max_cycle;Signal;HPM_P1;HPM_P2
2021/08/11 00:08:03;;;;;;;7.87;5.30;;;16.00;99.90;;;;;;20821326;28;20107;-79
2021/08/11 00:18:04;;;;;;;9.73;4.93;;;16.00;99.90;;;;;;20839220;28;20342;-79
2021/08/11 00:28:05;;;;;;;8.70;4.93;;;15.80;99.90;;;;;;20821676;28;20037;-78
2021/08/11 00:38:06;;;;;;;10.18;5.13;;;15.80;99.90;;;;;;20820565;28;20038;-78
2021/08/11 00:48:10;;;;;;;9.82;5.57;;;15.60;99.90;;;;;;20820301;28;20134;-80
2021/08/11 00:58:13;;;;;;;10.48;4.90;;;15.30;99.90;;;;;;20819339;28;20041;-81
2021/08/11 01:08:18;;;;;;;6.35;4.68;;;15.10;99.90;;;;;;20822720;28;20037;-78
2021/08/11 01:18:19;;;;;;;9.63;5.25;;;15.30;99.90;;;;;;20826202;28;20030;-78
2021/08/11 01:28:24;;;;;;;9.07;4.80;;;15.60;99.90;;;;;;20820040;28;20517;-79
2021/08/11 01:38:30;;;;;;;10.48;4.78;;;15.80;99.90;;;;;;20839679;28;20026;-80
2021/08/11 01:48:38;;;;;;;11.30;4.80;;;16.00;99.90;;;;;;20831609;28;20030;-78
2021/08/11 01:58:41;;;;;;;8.95;4.65;;;15.70;99.90;;;;;;20841628;28;20041;-79
2021/08/11 02:08:45;;;;;;;7.57;3.80;;;15.70;99.90;;;;;;20850672;28;20029;-80
2021/08/11 02:18:48;;;;;;;9.45;4.43;;;15.90;99.90;;;;;;20855464;28;20101;-78
2021/08/11 02:29:05;;;;;;;6.07;4.05;;;16.00;99.90;;;;;;20855136;28;20052;-78
2021/08/11 02:39:13;;;;;;;5.35;4.07;;;15.60;99.90;;;;;;20864795;28;20038;-78
2021/08/11 02:49:24;;;;;;;6.30;3.60;;;15.50;99.90;;;;;;20907748;28;20057;-79
2021/08/11 02:59:25;;;;;;;11.05;4.95;;;15.50;99.90;;;;;;20853008;28;20035;-78
2021/08/11 03:09:27;;;;;;;7.97;4.30;;;15.40;99.90;;;;;;20862441;28;20029;-80
2021/08/11 03:19:28;;;;;;;6.90;4.30;;;15.40;99.90;;;;;;20904222;28;20108;-78
2021/08/11 03:29:29;;;;;;;4.90;3.63;;;15.60;99.90;;;;;;20904433;28;20356;-79
2021/08/11 03:39:31;;;;;;;7.20;4.23;;;15.30;99.90;;;;;;20920247;28;20039;-80
2021/08/11 03:49:32;;;;;;;6.55;3.90;;;15.20;99.90;;;;;;20838060;28;20104;-78
2021/08/11 03:59:34;;;;;;;7.30;4.47;;;15.30;99.90;;;;;;20834966;28;20064;-80
2021/08/11 04:09:36;;;;;;;9.85;5.60;;;15.20;99.90;;;;;;20841582;28;20061;-78
2021/08/11 04:19:36;;;;;;;12.00;6.17;;;15.30;99.90;;;;;;20841141;28;20524;-78
2021/08/11 04:29:37;;;;;;;11.37;6.10;;;15.10;99.90;;;;;;20850512;28;20405;-79
2021/08/11 04:39:38;;;;;;;12.97;5.80;;;15.10;99.90;;;;;;20852475;28;20041;-80
2021/08/11 04:49:39;;;;;;;12.83;5.50;;;15.20;99.90;;;;;;20850100;28;20076;-80
2021/08/11 04:59:40;;;;;;;8.80;5.53;;;15.30;99.90;;;;;;20845549;28;20036;-80
2021/08/11 05:09:40;;;;;;;12.37;5.93;;;15.40;99.90;;;;;;20840835;28;20491;-79
2021/08/11 05:19:41;;;;;;;8.47;5.03;;;15.40;99.90;;;;;;20839931;28;20045;-79
2021/08/11 05:29:44;;;;;;;8.60;5.20;;;15.70;99.90;;;;;;20840008;28;20061;-79
2021/08/11 05:39:45;;;;;;;8.98;5.50;;;16.10;99.90;;;;;;20839952;28;20168;-80
2021/08/11 05:49:46;;;;;;;10.60;5.50;;;16.10;99.90;;;;;;20851838;28;20034;-80
2021/08/11 05:59:48;;;;;;;9.63;5.57;;;16.50;99.90;;;;;;20836068;28;20030;-80
2021/08/11 06:09:48;;;;;;;6.78;4.38;;;17.20;99.90;;;;;;20833284;28;20033;-79
2021/08/11 06:19:49;;;;;;;7.20;4.93;;;17.30;99.90;;;;;;20834645;28;20040;-80
2021/08/11 06:29:50;;;;;;;9.27;5.50;;;17.30;99.90;;;;;;20850093;28;20124;-80
2021/08/11 06:39:51;;;;;;;7.50;5.07;;;17.70;99.90;;;;;;20852478;28;20128;-81
2021/08/11 06:49:52;;;;;;;7.13;4.77;;;18.70;99.90;;;;;;20833342;28;20034;-81
2021/08/11 06:59:53;;;;;;;7.37;4.67;;;19.20;99.90;;;;;;20849714;28;20120;-80
2021/08/11 07:10:00;;;;;;;10.80;3.73;;;19.20;99.90;;;;;;20826629;28;20043;-79
2021/08/11 07:20:10;;;;;;;5.80;4.03;;;20.20;99.90;;;;;;20828375;28;20542;-79
2021/08/11 07:30:11;;;;;;;9.00;4.28;;;20.40;99.90;;;;;;20846144;28;20036;-79
2021/08/11 07:40:13;;;;;;;;;;;21.60;99.90;;;;;;20812716;28;20039;-81
2021/08/11 07:50:16;;;;;;;6.07;3.65;;;22.20;99.90;;;;;;20829920;28;19913;-81
2021/08/11 08:00:19;;;;;;;10.73;4.40;;;22.90;99.90;;;;;;20833629;28;20390;-81
2021/08/11 08:10:20;;;;;;;7.30;4.03;;;23.40;99.90;;;;;;20816050;28;20042;-81
2021/08/11 08:20:22;;;;;;;5.43;4.05;;;24.50;99.90;;;;;;20814435;28;20505;-82
2021/08/11 08:30:22;;;;;;;7.38;4.03;;;24.80;99.90;;;;;;20813947;28;20068;-83
2021/08/11 08:40:28;;;;;;;;;;;25.10;99.90;;;;;;20813662;28;20033;-83
2021/08/11 08:50:30;;;;;;;5.20;3.95;;;25.50;99.90;;;;;;20812935;28;19925;-83
2021/08/11 09:00:33;;;;;;;5.47;4.13;;;26.00;99.90;;;;;;20811879;28;20029;-80
2021/08/11 09:10:37;;;;;;;8.38;4.25;;;25.60;99.90;;;;;;20828931;28;20063;-82
2021/08/11 09:20:39;;;;;;;7.93;4.03;;;27.10;99.90;;;;;;20812698;28;20291;-84
2021/08/11 09:30:40;;;;;;;7.72;4.00;;;27.50;99.90;;;;;;20812504;28;20033;-83
2021/08/11 09:40:42;;;;;;;6.85;4.63;;;27.80;99.90;;;;;;20810406;28;20037;-83
2021/08/11 09:50:55;;;;;;;7.55;4.15;;;28.20;99.90;;;;;;20825405;28;20034;-82
2021/08/11 10:00:56;;;;;;;5.70;3.55;;;29.80;99.90;;;;;;20828553;28;20033;-82
2021/08/11 10:10:58;;;;;;;5.35;3.47;;;30.70;99.90;;;;;;20827438;28;20045;-82
2021/08/11 10:21:02;;;;;;;10.98;4.20;;;29.20;99.90;;;;;;20826129;28;20122;-82
2021/08/11 10:31:03;;;;;;;6.07;3.50;;;29.60;99.90;;;;;;20836085;28;20036;-83
2021/08/11 10:41:04;;;;;;;5.55;3.75;;;30.50;99.90;;;;;;20823257;28;20108;-82
2021/08/11 10:51:05;;;;;;;8.55;5.05;;;30.10;99.90;;;;;;20823001;28;20034;-81
2021/08/11 11:01:31;;;;;;;7.07;4.82;;;30.10;99.90;;;;;;20824082;28;20037;-81
2021/08/11 11:11:34;;;;;;;7.60;4.93;;;29.40;99.90;;;;;;20843951;28;20051;-82
2021/08/11 11:21:35;;;;;;;9.93;5.20;;;29.00;99.90;;;;;;20841846;28;20037;-79
2021/08/11 11:31:51;;;;;;;8.82;6.25;;;29.80;99.90;;;;;;20823170;28;20155;-81
2021/08/11 11:42:22;;;;;;;10.10;6.10;;;29.70;99.90;;;;;;20841161;28;20526;-80
2021/08/11 11:52:24;;;;;;;8.80;7.03;;;29.50;99.90;;;;;;20805254;28;20049;-80
2021/08/11 12:02:25;;;;;;;13.02;7.70;;;29.90;99.90;;;;;;20836242;28;20393;-82
2021/08/11 12:12:27;;;;;;;10.32;7.43;;;30.70;99.90;;;;;;20835852;28;20175;-81
2021/08/11 12:22:40;;;;;;;11.80;9.10;;;29.60;99.90;;;;;;20836120;28;20104;-81
2021/08/11 12:32:41;;;;;;;12.23;9.48;;;30.20;99.90;;;;;;20834322;28;20036;-81
2021/08/11 12:42:52;;;;;;;11.27;8.40;;;30.20;99.90;;;;;;20817254;28;20120;-81
2021/08/11 12:52:57;;;;;;;10.82;7.57;;;29.80;99.90;;;;;;20815847;28;20501;-81
2021/08/11 13:03:00;;;;;;;9.38;7.35;;;30.80;99.90;;;;;;20816530;28;20038;-83
2021/08/11 13:13:27;;;;;;;13.40;7.25;;;30.90;99.90;;;;;;20817686;28;20383;-81
2021/08/11 13:23:28;;;;;;;12.43;7.80;;;30.80;99.90;;;;;;20833621;28;20022;-79
2021/08/11 13:33:29;;;;;;;12.50;7.20;;;31.00;99.90;;;;;;20846025;22;20042;-73
2021/08/11 13:43:30;;;;;;;10.63;7.23;;;30.90;99.90;;;;;;20824601;28;20174;-73
2021/08/11 13:53:31;;;;;;;10.25;6.75;;;30.80;99.90;;;;;;20824621;28;20276;-73
2021/08/11 14:03:32;;;;;;;9.93;6.83;;;31.10;99.90;;;;;;20830297;28;20100;-73
2021/08/11 14:13:33;;;;;;;11.85;8.27;;;31.30;99.90;;;;;;20821284;28;20276;-73
2021/08/11 14:23:34;;;;;;;9.27;6.15;;;30.80;99.90;;;;;;20816960;28;20040;-73
2021/08/11 14:33:35;;;;;;;15.52;6.72;;;30.50;99.90;;;;;;20817988;28;20037;-73
2021/08/11 14:43:35;;;;;;;9.88;6.45;;;31.10;99.90;;;;;;20816942;28;20053;-72
2021/08/11 14:53:36;;;;;;;9.50;6.22;;;31.30;99.90;;;;;;20816764;28;20042;-73
2021/08/11 15:03:37;;;;;;;12.20;6.65;;;31.20;99.90;;;;;;20815303;28;20029;-72
2021/08/11 15:13:38;;;;;;;15.13;6.57;;;30.90;99.90;;;;;;20814295;28;20079;-72
2021/08/11 15:23:39;;;;;;;10.35;6.88;;;30.50;99.90;;;;;;20782714;28;20841;-73
2021/08/11 15:33:41;;;;;;;11.68;6.53;;;31.20;99.90;;;;;;20815420;28;20095;-73
2021/08/11 15:43:41;;;;;;;9.80;6.80;;;30.60;99.90;;;;;;20796938;28;20040;-73
2021/08/11 15:53:43;;;;;;;10.82;7.68;;;30.40;99.90;;;;;;20814060;28;20033;-72
2021/08/11 16:03:44;;;;;;;10.17;6.63;;;29.80;99.90;;;;;;20821186;28;20037;-73
2021/08/11 16:13:45;;;;;;;8.43;6.40;;;29.60;99.90;;;;;;20810430;28;20395;-72
2021/08/11 16:23:46;;;;;;;9.98;6.30;;;29.00;99.90;;;;;;20809651;28;20439;-72
2021/08/11 16:33:47;;;;;;;8.50;5.85;;;28.80;99.90;;;;;;20810457;28;20041;-72
2021/08/11 16:43:48;;;;;;;8.80;5.40;;;28.70;99.90;;;;;;20795311;28;20400;-72
2021/08/11 16:53:49;;;;;;;11.23;5.50;;;28.70;99.90;;;;;;20848391;28;20553;-72
2021/08/11 17:03:50;;;;;;;7.43;5.00;;;28.30;99.90;;;;;;20805887;28;20033;-72
2021/08/11 17:13:51;;;;;;;8.13;5.00;;;28.20;99.90;;;;;;20805589;28;20696;-73
2021/08/11 17:23:52;;;;;;;8.77;5.28;;;28.00;99.90;;;;;;20803779;28;20021;-73
2021/08/11 17:33:53;;;;;;;6.97;4.95;;;27.90;99.90;;;;;;20805576;28;20088;-72
2021/08/11 17:43:54;;;;;;;10.27;5.32;;;27.40;99.90;;;;;;20821152;28;20033;-72
2021/08/11 17:53:54;;;;;;;9.68;5.45;;;26.90;99.90;;;;;;20822003;28;20029;-72
2021/08/11 18:03:55;;;;;;;7.53;5.45;;;26.00;99.90;;;;;;20818803;28;20076;-72
2021/08/11 18:13:56;;;;;;;8.30;5.28;;;25.70;99.90;;;;;;20819425;28;20041;-72
2021/08/11 18:23:57;;;;;;;8.20;5.80;;;25.00;99.90;;;;;;20822344;28;20457;-72
2021/08/11 18:33:58;;;;;;;;;;;24.90;99.90;;;;;;20818211;28;20137;-72
2021/08/11 18:43:58;;;;;;;10.43;5.90;;;23.80;99.90;;;;;;20817846;28;19921;-72
2021/08/11 18:53:59;;;;;;;11.53;6.00;;;23.30;99.90;;;;;;20815064;28;20029;-72
2021/08/11 19:04:00;;;;;;;26.70;6.23;;;22.70;99.90;;;;;;20816120;28;20152;-72
2021/08/11 19:14:02;;;;;;;9.60;6.20;;;21.90;99.90;;;;;;20814950;28;20048;-72
2021/08/11 19:24:03;;;;;;;9.93;5.32;;;22.00;99.90;;;;;;20814380;28;20037;-73
2021/08/11 19:34:04;;;;;;;8.23;5.53;;;22.00;99.90;;;;;;20822929;23;20048;-74
2021/08/11 19:44:05;;;;;;;10.07;6.30;;;21.90;99.90;;;;;;20785900;28;20432;-73
2021/08/11 19:54:06;;;;;;;15.30;7.20;;;20.70;99.90;;;;;;20730170;28;20132;-72
2021/08/11 20:04:06;;;;;;;10.10;7.03;;;20.60;99.90;;;;;;20726597;28;20535;-74
2021/08/11 20:14:08;;;;;;;12.88;6.85;;;20.20;99.90;;;;;;20728829;28;20159;-72
2021/08/11 20:24:09;;;;;;;11.77;6.47;;;20.10;99.90;;;;;;20727251;28;20133;-72
2021/08/11 20:34:10;;;;;;;11.27;6.80;;;20.30;99.90;;;;;;20709154;28;20408;-72
2021/08/11 20:44:11;;;;;;;9.90;5.83;;;19.70;99.90;;;;;;20708503;28;20025;-73
2021/08/11 20:54:12;;;;;;;9.27;5.93;;;19.80;99.90;;;;;;20706192;28;20524;-73
2021/08/11 21:04:13;;;;;;;9.20;6.77;;;19.70;99.90;;;;;;20722188;28;20040;-73
2021/08/11 21:14:14;;;;;;;13.37;6.70;;;19.40;99.90;;;;;;20705895;28;20117;-73
2021/08/11 21:24:15;;;;;;;11.60;7.03;;;19.30;99.90;;;;;;20704156;28;20041;-72
2021/08/11 21:34:16;;;;;;;10.63;6.90;;;19.10;99.90;;;;;;20712526;28;20117;-72
2021/08/11 21:44:17;;;;;;;11.30;7.53;;;19.00;99.90;;;;;;20751169;28;20029;-72
2021/08/11 21:54:18;;;;;;;12.27;6.80;;;18.70;99.90;;;;;;20768949;28;20030;-75
2021/08/11 22:04:18;;;;;;;13.83;7.37;;;18.70;99.90;;;;;;20712527;28;20026;-74
2021/08/11 22:14:19;;;;;;;11.20;6.37;;;18.70;99.90;;;;;;20741572;28;20030;-73
2021/08/11 22:24:20;;;;;;;11.17;6.77;;;18.70;99.90;;;;;;20826790;28;20580;-73
2021/08/11 22:34:21;;;;;;;11.17;7.43;;;18.40;99.90;;;;;;20817385;28;20432;-73
2021/08/11 22:44:21;;;;;;;13.63;7.17;;;18.30;99.90;;;;;;20782104;28;20026;-73
2021/08/11 22:54:22;;;;;;;9.77;6.63;;;18.30;99.90;;;;;;20743707;28;20049;-73
2021/08/11 23:04:23;;;;;;;9.27;6.60;;;18.10;99.90;;;;;;20753834;28;20034;-73
2021/08/11 23:14:24;;;;;;;13.77;7.30;;;18.10;99.90;;;;;;20753113;28;20488;-73
2021/08/11 23:24:25;;;;;;;10.83;7.13;;;17.70;99.90;;;;;;20752100;28;20038;-76
2021/08/11 23:34:26;;;;;;;12.50;7.10;;;17.50;99.90;;;;;;20751492;28;20037;-73
2021/08/11 23:44:27;;;;;;;9.70;7.33;;;17.50;99.90;;;;;;20750625;28;20125;-72
2021/08/11 23:54:27;;;;;;;13.70;8.33;;;17.50;99.90;;;;;;20749787;28;20546;-73
